Time;durP1;ratioP1;P1;durP2;ratioP2;P2;SDS_P1;SDS_P2;PMS_P1;PMS_P2;Temp;Humidity;BMP_temperature;BMP_pressure;BME280_temperature;BME280_humidity;BME280_pressure;Samples;Min_cycle;Max_cycle;Signal;HPM_P1;HPM_P2
2022/10/22 00:01:13;;;;;;;16.58;9.30;;;;;;;;;;5329814;26;20007;-70
2022/10/22 00:03:38;;;;;;;19.60;9.35;;;;;;;;;;5348660;26;20000;-70
2022/10/22 00:06:04;;;;;;;20.05;9.18;;;;;;;;;;5347789;26;20034;-71
2022/10/22 00:08:29;;;;;;;14.93;8.82;;;;;;;;;;5327968;26;20016;-69
2022/10/22 00:10:54;;;;;;;16.58;8.82;;;;;;;;;;5349615;26;20010;-69
2022/10/22 00:13:20;;;;;;;12.75;8.82;;;;;;;;;;5348058;26;19997;-69
2022/10/22 00:15:45;;;;;;;18.08;9.15;;;;;;;;;;5350145;26;20000;-69
2022/10/22 00:18:10;;;;;;;20.75;9.25;;;;;;;;;;5350072;26;20291;-69
2022/10/22 00:20:35;;;;;;;18.50;9.00;;;;;;;;;;5347876;26;20015;-71
2022/10/22 00:23:00;;;;;;;10.63;7.72;;;;;;;;;;5348560;26;20000;-70
2022/10/22 00:25:26;;;;;;;14.95;8.77;;;;;;;;;;5347252;26;20001;-70
2022/10/22 00:27:51;;;;;;;17.80;9.07;;;;;;;;;;5347679;26;20314;-70
2022/10/22 00:30:16;;;;;;;19.00;9.00;;;;;;;;;;5347786;26;20052;-70
2022/10/22 00:32:41;;;;;;;18.55;9.07;;;;;;;;;;5347700;26;20032;-70
2022/10/22 00:35:07;;;;;;;17.85;9.02;;;;;;;;;;5349277;26;20028;-70
2022/10/22 00:37:32;;;;;;;17.45;8.60;;;;;;;;;;5349435;26;19997;-70
2022/10/22 00:39:57;;;;;;;15.13;7.80;;;;;;;;;;5347306;26;20030;-73
2022/10/22 00:42:24;;;;;;;14.40;9.02;;;;;;;;;;5327600;26;20424;-73
2022/10/22 00:45:01;;;;;;;13.55;8.80;;;;;;;;;;5327612;26;20026;-73
2022/10/22 00:47:28;;;;;;;16.50;8.38;;;;;;;;;;5348373;26;20035;-73
2022/10/22 00:49:54;;;;;;;13.60;7.22;;;;;;;;;;5349869;26;20318;-74
2022/10/22 00:52:20;;;;;;;17.05;8.93;;;;;;;;;;5348487;26;20009;-74
2022/10/22 00:54:46;;;;;;;21.55;8.57;;;;;;;;;;5348975;26;20004;-74
2022/10/22 00:57:11;;;;;;;15.80;7.10;;;;;;;;;;5350320;26;20043;-74
2022/10/22 00:59:36;;;;;;;19.05;7.95;;;;;;;;;;5347629;26;20000;-74
2022/10/22 01:02:02;;;;;;;13.52;6.72;;;;;;;;;;5350141;26;20028;-74
2022/10/22 01:04:27;;;;;;;18.45;7.10;;;;;;;;;;5347448;26;20416;-75
2022/10/22 01:06:52;;;;;;;19.60;8.00;;;;;;;;;;5350367;26;20008;-74
2022/10/22 01:09:36;;;;;;;17.67;6.60;;;;;;;;;;5348515;26;20424;-75
2022/10/22 01:12:06;;;;;;;15.95;6.70;;;;;;;;;;5349021;26;20004;-74
2022/10/22 01:14:40;;;;;;;21.33;6.85;;;;;;;;;;5327703;26;20004;-74
2022/10/22 01:17:13;;;;;;;13.82;6.62;;;;;;;;;;5327808;26;20000;-74
2022/10/22 01:19:44;;;;;;;13.13;7.03;;;;;;;;;;5348325;26;20032;-74
2022/10/22 01:22:28;;;;;;;16.30;6.47;;;;;;;;;;5328260;26;20000;-74
2022/10/22 01:25:02;;;;;;;13.88;6.62;;;;;;;;;;5348031;26;20004;-74
2022/10/22 01:27:30;;;;;;;18.98;6.28;;;;;;;;;;5348067;26;20019;-74
2022/10/22 01:30:05;;;;;;;12.15;6.07;;;;;;;;;;5348299;26;20275;-74
2022/10/22 01:32:33;;;;;;;14.55;6.25;;;;;;;;;;5347906;26;20083;-74
2022/10/22 01:35:04;;;;;;;15.10;6.60;;;;;;;;;;5329334;26;20040;-74
2022/10/22 01:37:31;;;;;;;18.10;6.95;;;;;;;;;;5349258;26;20050;-74
2022/10/22 01:39:57;;;;;;;12.68;6.35;;;;;;;;;;5347533;26;20064;-74
2022/10/22 01:42:23;;;;;;;16.75;7.05;;;;;;;;;;5348451;26;20429;-73
2022/10/22 01:44:49;;;;;;;;;;;;;;;;;;5349967;26;20035;-73
2022/10/22 01:47:17;;;;;;;12.37;6.65;;;;;;;;;;5349305;26;19927;-74
2022/10/22 01:49:49;;;;;;;13.05;5.78;;;;;;;;;;5347244;26;20001;-74
2022/10/22 01:52:22;;;;;;;18.30;6.25;;;;;;;;;;5327959;26;19997;-74
2022/10/22 01:54:54;;;;;;;17.92;7.18;;;;;;;;;;5328812;26;20336;-74
2022/10/22 01:57:19;;;;;;;12.80;7.32;;;;;;;;;;5348008;26;20365;-74
2022/10/22 01:59:48;;;;;;;19.27;6.93;;;;;;;;;;5348200;26;20310;-74
2022/10/22 02:02:22;;;;;;;15.93;6.47;;;;;;;;;;5348567;26;20000;-74
2022/10/22 02:05:02;;;;;;;16.67;6.87;;;;;;;;;;5348721;26;20015;-74
2022/10/22 02:07:31;;;;;;;11.95;6.87;;;;;;;;;;5348290;26;20305;-74
2022/10/22 02:09:57;;;;;;;27.05;8.00;;;;;;;;;;5350514;26;20004;-75
2022/10/22 02:12:22;;;;;;;;;;;;;;;;;;5350261;26;20023;-74
2022/10/22 02:14:49;;;;;;;19.50;7.25;;;;;;;;;;5347816;26;20031;-74
2022/10/22 02:17:16;;;;;;;17.27;6.97;;;;;;;;;;5350637;26;20055;-74
2022/10/22 02:19:41;;;;;;;17.25;6.75;;;;;;;;;;5348630;26;20046;-74
2022/10/22 02:22:06;;;;;;;;;;;;;;;;;;5349950;26;20382;-75
2022/10/22 02:24:32;;;;;;;24.35;6.87;;;;;;;;;;5349827;26;20331;-74
2022/10/22 02:27:02;;;;;;;13.77;6.43;;;;;;;;;;5348519;26;20127;-74
2022/10/22 02:29:32;;;;;;;23.20;7.22;;;;;;;;;;5348856;26;19988;-74
2022/10/22 02:31:59;;;;;;;13.98;6.03;;;;;;;;;;5347982;26;20366;-74
2022/10/22 02:34:26;;;;;;;12.18;6.10;;;;;;;;;;5347921;26;20371;-74
2022/10/22 02:36:52;;;;;;;12.27;6.18;;;;;;;;;;5327195;26;20010;-74
2022/10/22 02:39:18;;;;;;;15.23;5.87;;;;;;;;;;5347666;26;20024;-74
2022/10/22 02:41:44;;;;;;;16.58;6.30;;;;;;;;;;5347203;26;20004;-74
2022/10/22 02:44:09;;;;;;;;;;;;;;;;;;5347908;26;20019;-75
2022/10/22 02:46:34;;;;;;;13.95;5.40;;;;;;;;;;5326962;26;19927;-74
2022/10/22 02:48:59;;;;;;;14.10;5.57;;;;;;;;;;5346875;26;20092;-74
2022/10/22 02:51:24;;;;;;;13.75;5.30;;;;;;;;;;5347109;26;20015;-74
2022/10/22 02:53:50;;;;;;;20.23;5.80;;;;;;;;;;5327487;26;19996;-74
2022/10/22 02:56:15;;;;;;;16.65;5.15;;;;;;;;;;5346935;26;20014;-74
2022/10/22 02:58:40;;;;;;;15.88;5.35;;;;;;;;;;5347196;26;20295;-74
2022/10/22 03:01:05;;;;;;;10.43;4.70;;;;;;;;;;5346903;26;20004;-74
2022/10/22 03:03:30;;;;;;;20.80;6.60;;;;;;;;;;5347629;26;20006;-73
2022/10/22 03:05:56;;;;;;;11.75;5.03;;;;;;;;;;5326915;26;20040;-74
2022/10/22 03:08:21;;;;;;;11.73;5.12;;;;;;;;;;5347714;26;20020;-74
2022/10/22 03:10:46;;;;;;;13.43;5.55;;;;;;;;;;5348284;26;20007;-74
2022/10/22 03:13:11;;;;;;;13.48;5.60;;;;;;;;;;5348134;26;20069;-74
2022/10/22 03:15:36;;;;;;;13.43;5.53;;;;;;;;;;5349048;26;20007;-74
2022/10/22 03:18:02;;;;;;;17.10;5.75;;;;;;;;;;5347592;26;20039;-74
2022/10/22 03:20:27;;;;;;;14.13;5.32;;;;;;;;;;5347633;26;20047;-75
2022/10/22 03:22:52;;;;;;;11.55;5.10;;;;;;;;;;5347211;26;20008;-75
2022/10/22 03:25:19;;;;;;;14.82;6.37;;;;;;;;;;5348834;26;20370;-74
2022/10/22 03:27:45;;;;;;;13.13;5.15;;;;;;;;;;5346618;26;20026;-74
2022/10/22 03:30:10;;;;;;;;;;;;;;;;;;5347290;26;20011;-74
2022/10/22 03:32:35;;;;;;;14.63;5.60;;;;;;;;;;5347292;26;19927;-74
2022/10/22 03:35:00;;;;;;;16.77;6.68;;;;;;;;;;5347105;26;20100;-74
2022/10/22 03:37:26;;;;;;;13.95;5.60;;;;;;;;;;5347682;26;20520;-74
2022/10/22 03:39:52;;;;;;;14.70;5.87;;;;;;;;;;5347659;26;20020;-75
2022/10/22 03:42:17;;;;;;;16.73;5.37;;;;;;;;;;5347782;26;20000;-74
2022/10/22 03:44:42;;;;;;;;;;;;;;;;;;5347529;26;20362;-74
2022/10/22 03:47:08;;;;;;;13.18;5.45;;;;;;;;;;5327920;26;19927;-74
2022/10/22 03:49:33;;;;;;;13.18;5.28;;;;;;;;;;5348438;26;20000;-74
2022/10/22 03:52:04;;;;;;;13.43;6.10;;;;;;;;;;5347132;26;20046;-74
2022/10/22 03:54:29;;;;;;;14.52;5.18;;;;;;;;;;5348543;26;20151;-75
2022/10/22 03:56:54;;;;;;;17.50;5.25;;;;;;;;;;5327357;26;20001;-74
2022/10/22 03:59:19;;;;;;;19.37;5.97;;;;;;;;;;5346582;26;20026;-74
2022/10/22 04:01:44;;;;;;;16.02;5.07;;;;;;;;;;5347231;26;20386;-74
2022/10/22 04:04:10;;;;;;;17.23;5.87;;;;;;;;;;5327122;26;20024;-74
2022/10/22 04:06:35;;;;;;;22.98;6.97;;;;;;;;;;5346725;26;20000;-74
2022/10/22 04:09:01;;;;;;;11.63;5.45;;;;;;;;;;5346613;26;20024;-75
2022/10/22 04:11:26;;;;;;;18.12;6.43;;;;;;;;;;5349655;26;19996;-74
2022/10/22 04:13:51;;;;;;;12.73;5.90;;;;;;;;;;5347194;26;20022;-75
2022/10/22 04:16:18;;;;;;;15.57;5.15;;;;;;;;;;5329452;26;20000;-75
2022/10/22 04:18:44;;;;;;;19.65;5.90;;;;;;;;;;5347314;26;20008;-74
2022/10/22 04:21:10;;;;;;;15.68;5.90;;;;;;;;;;5347456;26;20004;-74
2022/10/22 04:23:36;;;;;;;13.75;5.62;;;;;;;;;;5346617;26;20000;-74
2022/10/22 04:26:02;;;;;;;12.60;5.85;;;;;;;;;;5346946;26;20051;-74
2022/10/22 04:28:28;;;;;;;13.65;4.95;;;;;;;;;;5347145;26;20008;-74
2022/10/22 04:30:53;;;;;;;;;;;;;;;;;;5348585;26;20000;-74
2022/10/22 04:33:18;;;;;;;17.30;6.30;;;;;;;;;;5326523;26;20004;-74
2022/10/22 04:35:43;;;;;;;14.80;5.80;;;;;;;;;;5345542;26;20461;-74
2022/10/22 04:38:08;;;;;;;13.13;5.50;;;;;;;;;;5345587;26;20046;-74
2022/10/22 04:40:33;;;;;;;12.50;5.28;;;;;;;;;;5325521;26;20036;-74
2022/10/22 04:42:59;;;;;;;12.00;4.82;;;;;;;;;;5346522;26;20333;-74
2022/10/22 04:45:24;;;;;;;19.35;5.70;;;;;;;;;;5345195;26;20001;-74
2022/10/22 04:47:49;;;;;;;17.48;5.03;;;;;;;;;;5347456;26;20005;-74
2022/10/22 04:50:14;;;;;;;16.23;5.72;;;;;;;;;;5347861;26;20061;-74
2022/10/22 04:52:39;;;;;;;13.50;4.68;;;;;;;;;;5326473;26;20305;-74
2022/10/22 04:55:05;;;;;;;16.87;5.55;;;;;;;;;;5345313;26;20340;-74
2022/10/22 04:57:30;;;;;;;16.55;5.30;;;;;;;;;;5347563;26;20050;-74
2022/10/22 04:59:56;;;;;;;18.83;5.82;;;;;;;;;;5346271;26;20009;-74
2022/10/22 05:02:21;;;;;;;11.63;5.18;;;;;;;;;;5345479;26;20152;-74
2022/10/22 05:04:46;;;;;;;8.63;4.93;;;;;;;;;;5345396;26;20373;-74
2022/10/22 05:07:11;;;;;;;18.87;5.72;;;;;;;;;;5346285;26;20000;-74
2022/10/22 05:09:36;;;;;;;13.90;5.35;;;;;;;;;;5327695;26;20289;-74
2022/10/22 05:12:02;;;;;;;19.30;5.37;;;;;;;;;;5327170;26;20022;-74
2022/10/22 05:14:27;;;;;;;17.23;6.45;;;;;;;;;;5325822;26;20023;-74
2022/10/22 05:16:52;;;;;;;17.02;6.15;;;;;;;;;;5345331;26;20318;-74
2022/10/22 05:19:23;;;;;;;15.68;6.22;;;;;;;;;;5346636;26;20370;-74
2022/10/22 05:21:48;;;;;;;17.80;5.57;;;;;;;;;;5347871;26;20029;-74
2022/10/22 05:24:13;;;;;;;16.42;6.50;;;;;;;;;;5345403;26;20001;-74
2022/10/22 05:26:39;;;;;;;16.62;6.05;;;;;;;;;;5325479;26;20044;-74
2022/10/22 05:29:04;;;;;;;13.00;5.95;;;;;;;;;;5325321;26;20001;-74
2022/10/22 05:31:29;;;;;;;28.92;6.53;;;;;;;;;;5348019;26;20011;-74
2022/10/22 05:33:54;;;;;;;18.77;6.40;;;;;;;;;;5325546;26;20008;-73
2022/10/22 05:36:20;;;;;;;18.52;6.93;;;;;;;;;;5346751;26;20023;-73
2022/10/22 05:38:46;;;;;;;21.25;6.95;;;;;;;;;;5344312;26;20016;-74
2022/10/22 05:41:11;;;;;;;;;;;;;;;;;;5346687;26;20375;-74
2022/10/22 05:43:36;;;;;;;20.98;6.47;;;;;;;;;;5347537;26;19927;-74
2022/10/22 05:46:03;;;;;;;20.85;6.15;;;;;;;;;;5326003;26;20001;-74
2022/10/22 05:48:28;;;;;;;19.65;7.60;;;;;;;;;;5345669;26;20012;-74
2022/10/22 05:50:53;;;;;;;;;;;;;;;;;;5347170;26;20000;-74
2022/10/22 05:53:18;;;;;;;20.12;7.47;;;;;;;;;;5347167;26;19934;-74
2022/10/22 05:55:43;;;;;;;17.65;6.18;;;;;;;;;;5347198;26;20004;-73
2022/10/22 05:58:09;;;;;;;23.73;7.72;;;;;;;;;;5348641;26;20395;-74
2022/10/22 06:00:35;;;;;;;13.07;6.53;;;;;;;;;;5349832;26;20004;-73
2022/10/22 06:03:00;;;;;;;14.25;6.65;;;;;;;;;;5347718;26;20001;-74
2022/10/22 06:05:25;;;;;;;17.50;6.95;;;;;;;;;;5327187;26;20126;-74
2022/10/22 06:07:50;;;;;;;19.95;6.72;;;;;;;;;;5348233;26;20085;-73
2022/10/22 06:10:17;;;;;;;18.33;6.57;;;;;;;;;;5346451;26;20000;-74
2022/10/22 06:12:42;;;;;;;19.30;5.70;;;;;;;;;;5348309;26;20033;-73
2022/10/22 06:15:07;;;;;;;;;;;;;;;;;;5331113;26;20004;-73
2022/10/22 06:17:32;;;;;;;20.65;5.37;;;;;;;;;;5353028;26;19937;-73
2022/10/22 06:19:57;;;;;;;;;;;;;;;;;;5347562;26;20092;-73
2022/10/22 06:22:22;;;;;;;18.25;4.82;;;;;;;;;;5348300;26;19927;-73
2022/10/22 06:24:48;;;;;;;17.75;4.97;;;;;;;;;;5348085;26;20152;-74
2022/10/22 06:27:13;;;;;;;15.20;4.35;;;;;;;;;;5327033;26;20000;-73
2022/10/22 06:29:38;;;;;;;13.73;4.35;;;;;;;;;;5349220;26;20032;-74
2022/10/22 06:32:03;;;;;;;17.62;4.75;;;;;;;;;;5347413;26;20087;-74
2022/10/22 06:34:28;;;;;;;15.10;3.85;;;;;;;;;;5346726;26;20032;-73
2022/10/22 06:36:53;;;;;;;10.18;4.55;;;;;;;;;;5347638;26;20011;-74
2022/10/22 06:39:19;;;;;;;26.90;4.55;;;;;;;;;;5346067;26;20407;-73
2022/10/22 06:41:44;;;;;;;14.80;3.72;;;;;;;;;;5348571;26;20011;-73
2022/10/22 06:44:13;;;;;;;19.00;5.57;;;;;;;;;;5348707;26;20000;-73
2022/10/22 06:46:38;;;;;;;22.62;4.82;;;;;;;;;;5347383;26;20274;-73
2022/10/22 06:49:04;;;;;;;21.20;4.65;;;;;;;;;;5326271;26;20000;-73
2022/10/22 06:51:29;;;;;;;12.20;3.55;;;;;;;;;;5347212;26;20012;-73
2022/10/22 06:53:55;;;;;;;17.20;3.97;;;;;;;;;;5349656;26;20000;-73
2022/10/22 06:56:21;;;;;;;18.73;4.30;;;;;;;;;;5349397;26;20324;-73
2022/10/22 06:58:50;;;;;;;19.30;5.22;;;;;;;;;;5347121;26;20290;-74
2022/10/22 07:01:16;;;;;;;11.82;3.47;;;;;;;;;;5326061;26;20038;-74
2022/10/22 07:03:41;;;;;;;18.60;4.07;;;;;;;;;;5346465;26;20009;-73
2022/10/22 07:06:08;;;;;;;15.07;3.90;;;;;;;;;;5348060;26;20103;-73
2022/10/22 07:08:33;;;;;;;14.32;3.37;;;;;;;;;;5327498;26;20008;-74
2022/10/22 07:11:06;;;;;;;15.90;3.83;;;;;;;;;;5347115;26;20078;-73
2022/10/22 07:13:32;;;;;;;18.48;3.12;;;;;;;;;;5346389;26;20033;-74
2022/10/22 07:15:57;;;;;;;18.30;4.68;;;;;;;;;;5346052;26;20000;-73
2022/10/22 07:18:22;;;;;;;17.12;4.20;;;;;;;;;;5345692;26;20004;-74
2022/10/22 07:20:48;;;;;;;17.17;3.50;;;;;;;;;;5347330;26;20022;-74
2022/10/22 07:23:13;;;;;;;9.07;3.28;;;;;;;;;;5348220;26;20012;-74
2022/10/22 07:25:39;;;;;;;18.50;3.45;;;;;;;;;;5347264;26;20031;-73
2022/10/22 07:28:04;;;;;;;10.23;3.62;;;;;;;;;;5325464;26;20094;-73
2022/10/22 07:30:29;;;;;;;12.82;3.20;;;;;;;;;;5347740;26;20393;-73
2022/10/22 07:32:54;;;;;;;14.98;4.03;;;;;;;;;;5349254;26;20016;-74
2022/10/22 07:35:19;;;;;;;16.48;3.55;;;;;;;;;;5350331;26;20326;-74
2022/10/22 07:37:45;;;;;;;13.62;3.58;;;;;;;;;;5346932;26;20048;-75
2022/10/22 07:40:10;;;;;;;13.63;3.57;;;;;;;;;;5346948;26;20116;-75
2022/10/22 07:42:35;;;;;;;18.60;3.75;;;;;;;;;;5348052;26;20096;-75
2022/10/22 07:45:01;;;;;;;12.77;3.83;;;;;;;;;;5350101;26;20335;-74
2022/10/22 07:47:26;;;;;;;14.87;3.53;;;;;;;;;;5347448;26;20298;-74
2022/10/22 07:49:51;;;;;;;15.77;4.12;;;;;;;;;;5346640;26;19996;-74
2022/10/22 07:52:16;;;;;;;15.38;3.25;;;;;;;;;;5347888;26;20365;-74
2022/10/22 07:54:41;;;;;;;14.93;4.43;;;;;;;;;;5347469;26;20000;-74
2022/10/22 07:57:06;;;;;;;20.25;3.67;;;;;;;;;;5349542;26;20019;-74
2022/10/22 07:59:32;;;;;;;14.95;3.67;;;;;;;;;;5348783;26;20012;-74
2022/10/22 08:01:57;;;;;;;12.82;4.35;;;;;;;;;;5347422;26;20000;-75
2022/10/22 08:04:22;;;;;;;19.98;5.40;;;;;;;;;;5347323;26;20000;-74
2022/10/22 08:06:47;;;;;;;17.80;4.90;;;;;;;;;;5348212;26;20000;-74
2022/10/22 08:09:12;;;;;;;15.88;4.22;;;;;;;;;;5328124;26;20001;-74
2022/10/22 08:11:38;;;;;;;21.08;5.87;;;;;;;;;;5348726;26;20027;-74
2022/10/22 08:14:03;;;;;;;16.30;4.87;;;;;;;;;;5346845;26;20027;-74
2022/10/22 08:16:28;;;;;;;17.25;3.85;;;;;;;;;;5346842;26;20043;-74
2022/10/22 08:18:53;;;;;;;11.00;3.45;;;;;;;;;;5347594;26;20004;-74
2022/10/22 08:21:18;;;;;;;19.73;4.93;;;;;;;;;;5346603;26;20040;-73
2022/10/22 08:23:43;;;;;;;15.35;4.25;;;;;;;;;;5345625;26;20000;-74
2022/10/22 08:26:09;;;;;;;20.58;4.07;;;;;;;;;;5346972;26;20031;-74
2022/10/22 08:28:35;;;;;;;16.35;3.78;;;;;;;;;;5348622;26;20001;-73
2022/10/22 08:31:02;;;;;;;15.57;3.95;;;;;;;;;;5346957;26;20000;-74
2022/10/22 08:33:27;;;;;;;13.13;3.72;;;;;;;;;;5346842;26;20047;-74
2022/10/22 08:35:52;;;;;;;16.48;3.87;;;;;;;;;;5346817;26;20015;-74
2022/10/22 08:38:18;;;;;;;11.75;3.05;;;;;;;;;;5346359;26;20385;-73
2022/10/22 08:40:45;;;;;;;13.50;2.80;;;;;;;;;;5348003;26;20017;-73
2022/10/22 08:43:26;;;;;;;17.58;3.70;;;;;;;;;;5347439;26;19999;-74
2022/10/22 08:46:03;;;;;;;16.10;3.60;;;;;;;;;;5346900;26;20255;-74
2022/10/22 08:48:28;;;;;;;14.30;2.95;;;;;;;;;;5346400;26;20310;-74
2022/10/22 08:50:55;;;;;;;10.82;2.85;;;;;;;;;;5347885;26;20008;-74
2022/10/22 08:53:24;;;;;;;12.90;3.45;;;;;;;;;;5346663;26;20449;-73
2022/10/22 08:55:51;;;;;;;17.15;3.25;;;;;;;;;;5347209;26;20032;-74
2022/10/22 08:58:24;;;;;;;11.20;2.85;;;;;;;;;;5346685;26;20370;-74
2022/10/22 09:00:53;;;;;;;15.25;3.40;;;;;;;;;;5349633;26;20035;-74
2022/10/22 09:03:26;;;;;;;14.02;3.67;;;;;;;;;;5346945;26;20023;-74
2022/10/22 09:05:59;;;;;;;15.57;3.72;;;;;;;;;;5348902;26;20043;-74
2022/10/22 09:08:24;;;;;;;17.42;3.42;;;;;;;;;;5349596;26;19997;-75
2022/10/22 09:11:02;;;;;;;14.87;3.30;;;;;;;;;;5347225;26;20000;-74
2022/10/22 09:13:27;;;;;;;16.25;3.20;;;;;;;;;;5347274;26;20000;-74
2022/10/22 09:16:00;;;;;;;10.75;3.12;;;;;;;;;;5346680;26;20403;-74
2022/10/22 09:18:28;;;;;;;9.15;3.10;;;;;;;;;;5349309;26;20386;-74
2022/10/22 09:20:55;;;;;;;11.65;3.03;;;;;;;;;;5346796;26;20078;-74
2022/10/22 09:23:52;;;;;;;18.77;4.85;;;;;;;;;;5347269;26;20014;-74
2022/10/22 09:26:18;;;;;;;16.52;4.07;;;;;;;;;;5286442;26;20004;-73
2022/10/22 09:28:48;;;;;;;10.07;3.22;;;;;;;;;;5348484;26;20131;-73
2022/10/22 09:31:13;;;;;;;12.02;4.28;;;;;;;;;;5331154;26;20013;-75
2022/10/22 09:33:40;;;;;;;14.87;2.60;;;;;;;;;;5349843;26;20047;-74
2022/10/22 09:36:06;;;;;;;11.98;3.22;;;;;;;;;;5348847;26;20027;-73
2022/10/22 09:38:39;;;;;;;12.07;2.85;;;;;;;;;;5350354;26;20004;-74
2022/10/22 09:41:04;;;;;;;10.10;3.30;;;;;;;;;;5351178;26;19996;-74
2022/10/22 09:43:30;;;;;;;20.20;4.57;;;;;;;;;;5328148;26;20007;-73
2022/10/22 09:45:59;;;;;;;10.55;3.17;;;;;;;;;;5348777;26;20035;-74
2022/10/22 09:48:30;;;;;;;13.57;3.95;;;;;;;;;;5349909;26;20023;-74
2022/10/22 09:50:59;;;;;;;13.75;3.30;;;;;;;;;;5349017;26;20408;-74
2022/10/22 09:53:26;;;;;;;16.90;2.95;;;;;;;;;;5349519;26;20357;-74
2022/10/22 09:55:52;;;;;;;14.02;3.10;;;;;;;;;;5350015;26;20055;-74
2022/10/22 09:58:18;;;;;;;12.27;2.47;;;;;;;;;;5349676;26;20004;-74
2022/10/22 10:00:45;;;;;;;17.73;5.60;;;;;;;;;;5350862;26;20055;-74
2022/10/22 10:03:17;;;;;;;12.35;2.87;;;;;;;;;;5329040;26;20059;-74
2022/10/22 10:05:45;;;;;;;15.10;3.10;;;;;;;;;;5350989;26;20049;-74
2022/10/22 10:08:12;;;;;;;8.60;2.85;;;;;;;;;;5335015;26;20028;-73
2022/10/22 10:10:45;;;;;;;12.35;2.92;;;;;;;;;;5354419;26;20362;-74
2022/10/22 10:13:16;;;;;;;10.88;2.62;;;;;;;;;;5350784;26;20004;-73
2022/10/22 10:15:41;;;;;;;14.25;2.90;;;;;;;;;;5352253;26;20279;-74
2022/10/22 10:18:25;;;;;;;10.20;3.20;;;;;;;;;;5329335;26;20015;-73
2022/10/22 10:21:08;;;;;;;23.62;3.90;;;;;;;;;;5329143;26;20106;-74
2022/10/22 10:23:56;;;;;;;13.40;3.00;;;;;;;;;;5351822;26;19992;-73
2022/10/22 10:26:24;;;;;;;12.77;3.15;;;;;;;;;;5349919;26;20283;-74
2022/10/22 10:28:49;;;;;;;15.48;3.60;;;;;;;;;;5349503;26;20051;-74
2022/10/22 10:31:31;;;;;;;9.52;2.80;;;;;;;;;;5349904;26;20046;-74
2022/10/22 10:34:15;;;;;;;16.37;2.97;;;;;;;;;;5350555;26;20088;-73
2022/10/22 10:37:00;;;;;;;13.52;2.62;;;;;;;;;;5349426;26;20015;-73
2022/10/22 10:39:54;;;;;;;15.73;3.20;;;;;;;;;;5348571;26;20047;-73
2022/10/22 10:42:19;;;;;;;12.63;2.92;;;;;;;;;;5332325;26;20053;-74
2022/10/22 10:44:47;;;;;;;13.77;2.95;;;;;;;;;;5353882;26;20016;-74
2022/10/22 10:47:12;;;;;;;14.27;3.37;;;;;;;;;;5349464;26;20373;-74
2022/10/22 10:49:37;;;;;;;16.67;3.12;;;;;;;;;;5350527;26;20074;-74
2022/10/22 10:52:41;;;;;;;19.85;3.95;;;;;;;;;;5350488;26;20008;-74
2022/10/22 10:55:14;;;;;;;16.37;3.92;;;;;;;;;;5237367;27;20014;-74
2022/10/22 10:57:52;;;;;;;15.48;3.28;;;;;;;;;;5237716;27;20051;-74
2022/10/22 11:00:18;;;;;;;15.85;3.50;;;;;;;;;;5305498;26;20450;-75
2022/10/22 11:03:13;;;;;;;11.30;2.87;;;;;;;;;;5329630;26;20000;-72
2022/10/22 11:05:51;;;;;;;16.62;3.97;;;;;;;;;;5328908;26;20003;-74
2022/10/22 11:08:19;;;;;;;19.17;4.50;;;;;;;;;;5350161;26;20023;-73
2022/10/22 11:10:50;;;;;;;17.55;4.20;;;;;;;;;;5348857;26;20291;-73
2022/10/22 11:13:15;;;;;;;17.83;3.37;;;;;;;;;;5348088;26;20001;-73
2022/10/22 11:15:44;;;;;;;20.23;3.85;;;;;;;;;;5350831;26;20023;-74
2022/10/22 11:18:16;;;;;;;13.98;3.55;;;;;;;;;;5350664;26;20119;-74
2022/10/22 11:20:49;;;;;;;17.10;3.15;;;;;;;;;;5348347;26;20001;-74
2022/10/22 11:23:41;;;;;;;16.75;3.10;;;;;;;;;;5350783;26;20033;-74
2022/10/22 11:26:10;;;;;;;15.45;3.83;;;;;;;;;;5323703;26;20024;-73
2022/10/22 11:28:46;;;;;;;14.93;3.15;;;;;;;;;;5329621;26;20000;-73
2022/10/22 11:31:11;;;;;;;;;;;;;;;;;;5329151;26;20000;-73
2022/10/22 11:33:42;;;;;;;17.27;3.28;;;;;;;;;;5348089;26;19970;-73
2022/10/22 11:36:08;;;;;;;17.00;3.47;;;;;;;;;;5348551;26;19995;-73
2022/10/22 11:38:34;;;;;;;16.27;3.67;;;;;;;;;;5330024;26;19997;-73
2022/10/22 11:41:01;;;;;;;18.85;3.58;;;;;;;;;;5347922;26;20042;-74
2022/10/22 11:43:31;;;;;;;17.05;3.72;;;;;;;;;;5348613;26;20015;-73
2022/10/22 11:46:22;;;;;;;15.50;3.33;;;;;;;;;;5348094;26;20000;-74
2022/10/22 11:49:04;;;;;;;14.43;3.15;;;;;;;;;;5349875;26;20001;-74
2022/10/22 11:51:37;;;;;;;15.48;4.15;;;;;;;;;;5349350;26;20058;-73
2022/10/22 11:54:22;;;;;;;19.87;3.42;;;;;;;;;;5350412;26;20018;-73
2022/10/22 11:56:50;;;;;;;16.60;4.22;;;;;;;;;;5348258;26;20268;-73
2022/10/22 11:59:32;;;;;;;16.75;3.83;;;;;;;;;;5348322;26;20024;-73
2022/10/22 12:01:57;;;;;;;15.32;3.10;;;;;;;;;;5350619;26;20000;-73
2022/10/22 12:04:38;;;;;;;17.45;2.80;;;;;;;;;;5349858;26;20369;-73
2022/10/22 12:07:04;;;;;;;17.52;3.50;;;;;;;;;;5348659;26;20026;-73
2022/10/22 12:09:31;;;;;;;12.20;3.53;;;;;;;;;;5328029;26;20031;-73
2022/10/22 12:12:12;;;;;;;17.80;4.28;;;;;;;;;;5328058;26;20018;-74
2022/10/22 12:14:50;;;;;;;20.70;3.97;;;;;;;;;;5350157;26;20000;-74
2022/10/22 12:17:16;;;;;;;16.98;4.15;;;;;;;;;;5349239;26;19999;-73
2022/10/22 12:19:48;;;;;;;14.98;3.33;;;;;;;;;;5349231;26;20001;-73
2022/10/22 12:22:19;;;;;;;17.20;4.50;;;;;;;;;;5349038;26;20011;-73
2022/10/22 12:24:46;;;;;;;18.12;4.12;;;;;;;;;;5348202;26;20362;-74
2022/10/22 12:27:24;;;;;;;16.12;3.87;;;;;;;;;;5350319;26;20303;-73
2022/10/22 12:29:57;;;;;;;13.25;3.62;;;;;;;;;;5348520;26;20057;-74
2022/10/22 12:32:23;;;;;;;17.42;3.50;;;;;;;;;;5328047;26;20033;-73
2022/10/22 12:34:49;;;;;;;16.87;4.07;;;;;;;;;;5350867;26;20000;-72
2022/10/22 12:37:15;;;;;;;15.45;3.95;;;;;;;;;;5354708;26;20012;-73
2022/10/22 12:39:41;;;;;;;15.77;4.12;;;;;;;;;;5347827;26;20021;-73
2022/10/22 12:42:06;;;;;;;14.80;3.85;;;;;;;;;;5347733;26;20052;-73
2022/10/22 12:44:32;;;;;;;19.98;3.85;;;;;;;;;;5327754;26;20009;-74
2022/10/22 12:46:57;;;;;;;17.15;5.03;;;;;;;;;;5347454;26;20440;-74
2022/10/22 12:49:33;;;;;;;20.67;4.40;;;;;;;;;;5350040;26;20048;-73
2022/10/22 12:52:00;;;;;;;14.82;3.75;;;;;;;;;;5348426;26;20366;-74
2022/10/22 12:54:26;;;;;;;17.10;4.53;;;;;;;;;;5329367;26;20047;-74
2022/10/22 12:56:53;;;;;;;20.98;5.05;;;;;;;;;;5347997;26;20004;-74
2022/10/22 12:59:21;;;;;;;11.80;3.33;;;;;;;;;;5347695;26;20035;-74
2022/10/22 13:01:47;;;;;;;14.87;4.05;;;;;;;;;;5348857;26;20015;-74
2022/10/22 13:04:12;;;;;;;17.30;4.22;;;;;;;;;;5348121;26;20001;-74
2022/10/22 13:06:42;;;;;;;17.92;4.18;;;;;;;;;;5347948;26;19997;-74
2022/10/22 13:09:16;;;;;;;15.18;4.43;;;;;;;;;;5329384;26;20005;-73
2022/10/22 13:11:48;;;;;;;16.12;4.20;;;;;;;;;;5350291;26;20008;-74
2022/10/22 13:14:21;;;;;;;18.05;3.87;;;;;;;;;;5348049;26;20015;-73
2022/10/22 13:17:23;;;;;;;12.43;2.95;;;;;;;;;;5348193;26;20040;-72
2022/10/22 13:19:51;;;;;;;22.48;4.03;;;;;;;;;;5236102;27;20024;-73
2022/10/22 13:22:32;;;;;;;11.63;3.15;;;;;;;;;;5327591;26;20013;-73
2022/10/22 13:25:02;;;;;;;15.73;4.57;;;;;;;;;;5347410;26;20065;-74
2022/10/22 13:27:27;;;;;;;13.77;3.05;;;;;;;;;;5348887;26;20000;-74
2022/10/22 13:29:53;;;;;;;14.80;3.03;;;;;;;;;;5329115;26;19996;-74
2022/10/22 13:32:24;;;;;;;14.77;4.03;;;;;;;;;;5350036;26;20027;-73
2022/10/22 13:34:49;;;;;;;14.55;3.05;;;;;;;;;;5347901;26;20015;-74
2022/10/22 13:37:14;;;;;;;20.27;4.22;;;;;;;;;;5347762;26;20045;-73
2022/10/22 13:39:39;;;;;;;13.57;3.03;;;;;;;;;;5346473;26;20406;-73
2022/10/22 13:42:10;;;;;;;16.37;3.37;;;;;;;;;;5347091;26;20092;-73
2022/10/22 13:44:35;;;;;;;16.40;3.47;;;;;;;;;;5347624;26;20487;-73
2022/10/22 13:47:00;;;;;;;14.93;3.53;;;;;;;;;;5348044;26;20001;-73
2022/10/22 13:49:25;;;;;;;11.70;3.20;;;;;;;;;;5350778;26;20095;-73
2022/10/22 13:51:51;;;;;;;11.93;2.93;;;;;;;;;;5349403;26;20001;-73
2022/10/22 13:54:18;;;;;;;15.90;3.42;;;;;;;;;;5327631;26;20096;-74
2022/10/22 13:56:43;;;;;;;16.87;3.28;;;;;;;;;;5348330;26;20005;-73
2022/10/22 13:59:09;;;;;;;15.32;3.10;;;;;;;;;;5347857;26;20057;-73
2022/10/22 14:01:35;;;;;;;12.93;3.97;;;;;;;;;;5349945;26;20030;-73
2022/10/22 14:04:02;;;;;;;20.25;3.60;;;;;;;;;;5347194;26;20012;-73
2022/10/22 14:06:31;;;;;;;12.45;3.55;;;;;;;;;;5346060;26;20026;-73
2022/10/22 14:08:57;;;;;;;17.50;3.85;;;;;;;;;;5346222;26;20326;-73
2022/10/22 14:11:23;;;;;;;15.88;3.35;;;;;;;;;;5347760;26;20008;-73
2022/10/22 14:13:48;;;;;;;17.12;3.30;;;;;;;;;;5346941;26;20020;-73
2022/10/22 14:16:17;;;;;;;15.65;3.37;;;;;;;;;;5350764;26;20011;-73
2022/10/22 14:18:42;;;;;;;18.77;3.62;;;;;;;;;;5348371;26;20321;-73
2022/10/22 14:21:08;;;;;;;11.45;3.25;;;;;;;;;;5349171;26;20001;-74
2022/10/22 14:23:35;;;;;;;20.65;4.60;;;;;;;;;;5330421;26;20011;-74
2022/10/22 14:26:00;;;;;;;16.30;3.85;;;;;;;;;;5349040;26;20071;-73
2022/10/22 14:28:25;;;;;;;15.93;4.15;;;;;;;;;;5328823;26;20011;-73
2022/10/22 14:30:51;;;;;;;19.12;3.33;;;;;;;;;;5348591;26;20000;-74
2022/10/22 14:33:18;;;;;;;15.13;5.55;;;;;;;;;;5331219;26;20000;-74
2022/10/22 14:35:43;;;;;;;16.20;3.87;;;;;;;;;;5349027;26;20012;-73
2022/10/22 14:38:08;;;;;;;14.45;4.80;;;;;;;;;;5348870;26;20049;-74